Time;durP1;ratioP1;P1;durP2;ratioP2;P2;SDS_P1;SDS_P2;PMS_P1;PMS_P2;Temp;Humidity;BMP_temperature;BMP_pressure;BME280_temperature;BME280_humidity;BME280_pressure;Samples;Min_cycle;Max_cycle;Signal;HPM_P1;HPM_P2
2023/08/17 00:02:20;;;;;;;9.27;2.92;;;;;;;15.96;100.00;101565.22;4998549;28;20899;-82
2023/08/17 00:04:54;;;;;;;7.88;2.80;;;;;;;15.83;100.00;101565.94;4997656;28;20430;-84
2023/08/17 00:07:27;;;;;;;8.65;2.90;;;;;;;16.01;100.00;101567.91;4998232;28;20443;-84
2023/08/17 00:10:01;;;;;;;8.27;2.90;;;;;;;15.92;100.00;101561.41;4996590;28;20428;-82
2023/08/17 00:12:30;;;;;;;11.43;3.03;;;;;;;15.78;100.00;101558.56;4997295;28;20435;-84
2023/08/17 00:15:03;;;;;;;9.77;2.90;;;;;;;15.84;100.00;101562.91;4998601;28;20896;-86
2023/08/17 00:17:36;;;;;;;10.50;2.90;;;;;;;15.70;100.00;101557.28;5005966;28;20516;-83
2023/08/17 00:20:11;;;;;;;9.13;3.25;;;;;;;15.90;100.00;101558.16;4998058;28;20795;-85
2023/08/17 00:22:39;;;;;;;9.57;3.10;;;;;;;15.77;100.00;101555.00;4995623;28;20835;-84
2023/08/17 00:25:13;;;;;;;8.18;2.95;;;;;;;15.74;100.00;101550.09;5000658;28;20426;-82
2023/08/17 00:27:46;;;;;;;10.05;3.38;;;;;;;15.81;100.00;101566.22;4996147;28;20446;-84
2023/08/17 00:30:19;;;;;;;9.50;3.05;;;;;;;15.73;100.00;101559.44;4996602;28;20415;-84
2023/08/17 00:32:53;;;;;;;8.77;3.30;;;;;;;15.63;100.00;101559.53;5003024;28;20420;-85
2023/08/17 00:35:27;;;;;;;8.65;3.17;;;;;;;15.63;100.00;101560.38;4999089;28;20779;-84
2023/08/17 00:38:00;;;;;;;9.75;3.30;;;;;;;15.60;100.00;101557.41;4999334;28;20429;-85
2023/08/17 00:40:33;;;;;;;7.93;3.00;;;;;;;15.56;100.00;101559.09;4997991;28;20997;-83
2023/08/17 00:43:06;;;;;;;6.63;3.00;;;;;;;15.53;100.00;101552.25;5011793;28;20896;-84
2023/08/17 00:45:41;;;;;;;8.73;3.30;;;;;;;15.61;100.00;101554.34;4999730;28;20405;-82
2023/08/17 00:48:15;;;;;;;12.07;3.40;;;;;;;15.54;100.00;101542.94;4996020;28;20442;-84
2023/08/17 00:50:52;;;;;;;9.18;3.15;;;;;;;15.60;100.00;101535.44;4997907;28;20430;-84
2023/08/17 00:53:28;;;;;;;10.88;3.58;;;;;;;15.47;100.00;101545.22;4998329;28;20911;-83
2023/08/17 00:56:03;;;;;;;9.75;3.03;;;;;;;15.48;100.00;101528.47;5003018;28;20431;-81
2023/08/17 00:58:36;;;;;;;8.80;3.00;;;;;;;15.38;100.00;101531.31;5002829;28;20420;-82
2023/08/17 01:01:08;;;;;;;9.27;3.25;;;;;;;15.39;100.00;101521.16;5004058;28;20432;-83
2023/08/17 01:03:41;;;;;;;7.85;3.25;;;;;;;15.42;100.00;101521.38;4994413;28;20439;-84
2023/08/17 01:06:11;;;;;;;7.95;3.03;;;;;;;15.48;100.00;101519.41;4999061;28;20437;-84
2023/08/17 01:08:45;;;;;;;7.57;3.03;;;;;;;15.46;100.00;101516.13;4993352;28;20433;-82
2023/08/17 01:11:28;;;;;;;8.80;3.00;;;;;;;15.43;100.00;101511.25;5000878;28;20428;-83
2023/08/17 01:14:05;;;;;;;8.13;3.45;;;;;;;15.47;100.00;101504.88;4999082;28;20426;-84
2023/08/17 01:16:48;;;;;;;7.82;2.90;;;;;;;15.43;100.00;101505.75;5017008;28;20439;-84
2023/08/17 01:19:26;;;;;;;10.77;3.45;;;;;;;15.39;100.00;101505.50;5002177;28;20770;-85
2023/08/17 01:22:06;;;;;;;10.63;3.25;;;;;;;15.36;100.00;101500.63;5005051;28;20423;-84
2023/08/17 01:24:40;;;;;;;7.38;3.22;;;;;;;15.40;100.00;101492.63;5002575;28;20422;-85
2023/08/17 01:27:13;;;;;;;8.80;3.30;;;;;;;15.35;100.00;101498.97;5002433;28;20422;-82
2023/08/17 01:29:42;;;;;;;7.65;2.97;;;;;;;15.37;100.00;101487.72;5002168;28;20797;-83
2023/08/17 01:32:16;;;;;;;8.38;3.28;;;;;;;15.38;100.00;101495.66;4996697;28;20802;-83
2023/08/17 01:34:51;;;;;;;8.87;3.43;;;;;;;15.37;100.00;101496.78;5007116;28;20434;-84
2023/08/17 01:37:29;;;;;;;10.05;3.22;;;;;;;15.47;100.00;101491.16;5000009;28;20425;-83
2023/08/17 01:40:05;;;;;;;10.07;3.17;;;;;;;15.45;100.00;101498.03;4999651;28;20428;-84
2023/08/17 01:42:39;;;;;;;7.22;2.83;;;;;;;15.43;100.00;101487.38;5002282;28;20434;-84
2023/08/17 01:45:13;;;;;;;8.60;2.63;;;;;;;15.51;100.00;101488.66;5014653;28;20937;-83
2023/08/17 01:47:46;;;;;;;7.57;2.88;;;;;;;15.47;100.00;101487.59;4999137;28;20768;-85
2023/08/17 01:50:19;;;;;;;9.83;3.20;;;;;;;15.40;100.00;101498.94;5001272;28;20421;-84
2023/08/17 01:52:52;;;;;;;8.32;2.80;;;;;;;15.45;100.00;101498.88;5000207;28;20917;-83
2023/08/17 01:55:28;;;;;;;8.38;2.65;;;;;;;15.42;100.00;101499.44;5005953;28;20423;-83
2023/08/17 01:58:01;;;;;;;8.20;2.60;;;;;;;15.46;100.00;101513.41;5000006;28;20498;-83
2023/08/17 02:00:29;;;;;;;8.63;2.80;;;;;;;15.47;100.00;101501.31;4999635;28;20920;-84
2023/08/17 02:03:02;;;;;;;8.55;2.70;;;;;;;15.47;100.00;101506.81;4998598;28;20411;-82
2023/08/17 02:05:36;;;;;;;6.22;2.60;;;;;;;15.47;100.00;101515.03;5001802;28;20426;-82
2023/08/17 02:08:09;;;;;;;6.40;2.65;;;;;;;15.49;100.00;101510.06;4998606;28;20441;-83
2023/08/17 02:10:38;;;;;;;6.65;2.58;;;;;;;15.51;100.00;101509.75;4999077;28;20425;-82
2023/08/17 02:13:12;;;;;;;6.32;2.45;;;;;;;15.50;100.00;101514.44;4999893;28;20426;-84
2023/08/17 02:15:40;;;;;;;7.20;2.90;;;;;;;15.65;100.00;101510.69;4999884;28;20425;-83
2023/08/17 02:18:13;;;;;;;9.82;2.90;;;;;;;15.61;100.00;101509.66;5007903;28;20434;-83
2023/08/17 02:20:46;;;;;;;7.55;2.67;;;;;;;15.56;100.00;101520.69;5000476;28;21323;-85
2023/08/17 02:23:15;;;;;;;6.72;2.60;;;;;;;15.47;100.00;101526.00;4998217;28;20421;-84
2023/08/17 02:25:49;;;;;;;7.53;2.80;;;;;;;15.51;100.00;101520.75;4996321;28;20447;-84
2023/08/17 02:28:22;;;;;;;7.47;3.10;;;;;;;15.46;100.00;101514.19;4996899;28;20438;-83
2023/08/17 02:30:58;;;;;;;8.88;3.00;;;;;;;15.55;100.00;101502.56;5002122;28;20440;-86
2023/08/17 02:33:28;;;;;;;6.75;3.00;;;;;;;15.43;100.00;101500.28;5015418;28;20437;-85
2023/08/17 02:36:02;;;;;;;6.75;2.83;;;;;;;15.51;100.00;101509.75;5006766;28;20425;-83
2023/08/17 02:38:35;;;;;;;9.07;3.22;;;;;;;15.40;100.00;101512.63;5002439;28;20432;-85
2023/08/17 02:41:09;;;;;;;6.45;3.15;;;;;;;15.40;100.00;101496.19;5003702;28;20430;-83
2023/08/17 02:43:42;;;;;;;8.13;3.00;;;;;;;15.45;100.00;101496.13;5002402;28;20898;-84
2023/08/17 02:46:16;;;;;;;8.93;3.10;;;;;;;15.45;100.00;101498.03;4998561;28;20428;-85
2023/08/17 02:48:49;;;;;;;8.18;3.00;;;;;;;15.27;100.00;101505.94;5017215;28;20426;-83
2023/08/17 02:51:22;;;;;;;11.13;3.10;;;;;;;15.49;100.00;101510.06;4999188;28;20419;-82
2023/08/17 02:53:56;;;;;;;5.10;2.70;;;;;;;15.42;100.00;101496.69;4998397;28;20453;-85
2023/08/17 02:56:30;;;;;;;8.82;2.97;;;;;;;15.48;100.00;101495.53;4998471;28;20917;-83
2023/08/17 02:59:04;;;;;;;10.80;2.90;;;;;;;15.43;100.00;101495.59;5002350;28;20422;-83
2023/08/17 03:01:32;;;;;;;8.55;2.83;;;;;;;15.45;100.00;101496.13;5001185;28;20451;-83
2023/08/17 03:04:08;;;;;;;8.13;2.77;;;;;;;15.35;100.00;101498.97;5013314;28;20513;-84
2023/08/17 03:06:41;;;;;;;6.20;2.50;;;;;;;15.30;100.00;101502.59;4998766;28;20447;-84
2023/08/17 03:09:14;;;;;;;8.93;2.75;;;;;;;15.30;100.00;101507.25;4998730;28;20428;-84
2023/08/17 03:11:49;;;;;;;8.82;2.80;;;;;;;15.28;100.00;101512.22;4998690;28;20429;-85
2023/08/17 03:14:22;;;;;;;8.88;2.90;;;;;;;15.23;100.00;101506.78;5005059;28;20532;-84
2023/08/17 03:16:55;;;;;;;6.18;2.90;;;;;;;15.34;100.00;101504.75;4998573;28;20417;-82
2023/08/17 03:19:28;;;;;;;9.52;3.00;;;;;;;15.29;100.00;101503.72;4999377;28;20441;-83
2023/08/17 03:21:57;;;;;;;7.40;2.97;;;;;;;15.27;100.00;101505.09;4999083;28;20485;-85
2023/08/17 03:24:31;;;;;;;8.00;3.10;;;;;;;15.22;100.00;101507.91;5000550;28;20437;-84
2023/08/17 03:27:05;;;;;;;7.60;3.00;;;;;;;15.21;100.00;101514.50;5002210;28;20426;-82
2023/08/17 03:29:39;;;;;;;9.53;3.07;;;;;;;15.19;100.00;101505.75;5003678;28;20426;-83
2023/08/17 03:32:12;;;;;;;6.80;3.10;;;;;;;15.19;100.00;101500.25;5000398;28;20416;-83
2023/08/17 03:34:46;;;;;;;6.80;2.70;;;;;;;15.24;100.00;101508.44;5000634;28;21191;-83
2023/08/17 03:37:19;;;;;;;8.73;3.00;;;;;;;15.19;100.00;101505.75;4998397;28;20439;-84
2023/08/17 03:39:52;;;;;;;7.55;2.80;;;;;;;15.21;100.00;101498.06;5000666;28;20425;-83
2023/08/17 03:42:27;;;;;;;6.70;2.90;;;;;;;15.29;100.00;101497.41;4998339;28;20465;-84
2023/08/17 03:45:02;;;;;;;7.32;2.90;;;;;;;15.18;100.00;101496.72;4997936;28;20421;-83
2023/08/17 03:47:31;;;;;;;7.25;2.85;;;;;;;15.26;100.00;101495.25;4996723;28;20406;-84
2023/08/17 03:50:04;;;;;;;7.35;3.25;;;;;;;15.36;100.00;101505.31;4998959;28;20438;-85
2023/08/17 03:52:38;;;;;;;7.63;2.70;;;;;;;15.37;100.00;101501.44;4998663;28;20424;-84
2023/08/17 03:55:11;;;;;;;7.85;2.55;;;;;;;15.45;100.00;101503.53;5000309;28;20445;-84
2023/08/17 03:57:45;;;;;;;7.65;2.90;;;;;;;15.38;100.00;101503.06;4999475;28;20418;-85
2023/08/17 04:00:19;;;;;;;9.57;3.08;;;;;;;15.33;100.00;101505.84;4998249;28;20424;-83
2023/08/17 04:02:57;;;;;;;9.40;3.08;;;;;;;15.31;100.00;101506.16;5012542;28;20435;-85
2023/08/17 04:05:30;;;;;;;9.25;2.95;;;;;;;15.46;100.00;101505.16;5004257;28;20421;-86
2023/08/17 04:08:04;;;;;;;9.10;3.00;;;;;;;15.39;100.00;101502.78;4997800;28;20445;-82
2023/08/17 04:10:37;;;;;;;6.50;2.60;;;;;;;15.40;100.00;101509.91;4997377;28;20422;-85
2023/08/17 04:13:06;;;;;;;5.97;2.55;;;;;;;15.46;100.00;101495.00;5001748;28;20424;-84
2023/08/17 04:15:39;;;;;;;6.88;2.70;;;;;;;15.47;100.00;101504.88;4995954;28;20439;-84
2023/08/17 04:18:13;;;;;;;9.07;2.90;;;;;;;15.50;100.00;101497.97;5000674;28;20437;-83
2023/08/17 04:20:46;;;;;;;6.88;2.70;;;;;;;15.63;100.00;101500.03;4996457;28;20469;-84
2023/08/17 04:23:19;;;;;;;7.70;2.80;;;;;;;15.58;100.00;101499.28;4998421;28;20424;-85
2023/08/17 04:25:55;;;;;;;9.45;2.85;;;;;;;15.59;100.00;101495.41;5000281;28;20429;-84
2023/08/17 04:28:31;;;;;;;8.32;3.08;;;;;;;15.80;100.00;101498.75;4995731;28;20424;-84
2023/08/17 04:30:59;;;;;;;8.32;2.80;;;;;;;15.72;100.00;101500.16;5005815;28;20441;-84
2023/08/17 04:33:41;;;;;;;8.50;3.00;;;;;;;15.74;100.00;101502.63;4999341;28;20742;-83
2023/08/17 04:36:14;;;;;;;7.88;3.10;;;;;;;15.73;100.00;101515.53;4996843;28;20420;-84
2023/08/17 04:38:48;;;;;;;7.75;3.10;;;;;;;15.74;100.00;101519.09;4994550;28;20420;-84
2023/08/17 04:41:21;;;;;;;11.03;3.50;;;;;;;15.78;100.00;101511.91;4998439;28;20426;-83
2023/08/17 04:43:51;;;;;;;8.05;3.30;;;;;;;15.80;100.00;101512.47;5005738;28;20430;-85
2023/08/17 04:46:25;;;;;;;8.95;3.17;;;;;;;15.81;100.00;101512.16;4999617;28;20442;-82
2023/08/17 04:48:53;;;;;;;7.07;3.00;;;;;;;15.86;100.00;101521.44;5003202;28;20893;-83
2023/08/17 04:51:27;;;;;;;9.30;3.10;;;;;;;15.88;100.00;101521.94;5003629;28;20743;-83
2023/08/17 04:54:00;;;;;;;8.98;2.85;;;;;;;15.88;100.00;101527.44;5007452;28;20950;-85
2023/08/17 04:56:34;;;;;;;12.05;3.08;;;;;;;15.88;100.00;101528.28;5006392;28;20420;-85
2023/08/17 04:59:08;;;;;;;9.05;2.97;;;;;;;15.87;100.00;101531.28;5006289;28;20977;-83
2023/08/17 05:01:42;;;;;;;8.67;3.00;;;;;;;15.89;100.00;101532.63;5016985;28;20440;-84
2023/08/17 05:04:15;;;;;;;6.15;2.75;;;;;;;15.92;100.00;101533.97;5002323;28;20422;-84
2023/08/17 05:06:48;;;;;;;8.07;2.97;;;;;;;15.94;100.00;101540.81;5009978;28;21054;-85
2023/08/17 05:09:22;;;;;;;8.43;3.00;;;;;;;15.96;100.00;101541.34;5003052;28;20433;-85
2023/08/17 05:11:55;;;;;;;10.85;3.40;;;;;;;15.96;100.00;101551.50;5006020;28;20431;-88
2023/08/17 05:14:25;;;;;;;9.48;3.05;;;;;;;15.91;100.00;101559.78;5003038;28;20522;-86
2023/08/17 05:16:54;;;;;;;7.75;3.20;;;;;;;15.85;100.00;101567.28;5007810;28;20422;-88
2023/08/17 05:19:22;;;;;;;8.95;3.47;;;;;;;15.82;100.00;101570.59;5010145;28;20441;-88
2023/08/17 05:21:56;;;;;;;9.48;3.45;;;;;;;15.83;100.00;101585.16;5007656;28;20907;-89
2023/08/17 05:24:29;;;;;;;7.63;3.17;;;;;;;15.79;100.00;101584.91;5009238;28;20426;-88
2023/08/17 05:27:03;;;;;;;9.25;3.67;;;;;;;15.77;100.00;101595.34;5013216;28;20429;-86
2023/08/17 05:29:32;;;;;;;8.85;3.60;;;;;;;15.72;100.00;101592.66;5006544;28;20428;-86
2023/08/17 05:32:01;;;;;;;9.57;3.40;;;;;;;15.71;100.00;101602.81;5013514;28;20444;-87
2023/08/17 05:34:34;;;;;;;7.85;3.60;;;;;;;15.68;100.00;101605.34;5007503;28;20948;-86
2023/08/17 05:37:08;;;;;;;11.13;3.67;;;;;;;15.65;100.00;101610.28;5004239;28;20433;-85
2023/08/17 05:39:42;;;;;;;13.93;3.97;;;;;;;15.62;100.00;101612.81;5007193;28;20786;-86
2023/08/17 05:42:17;;;;;;;9.02;3.90;;;;;;;15.62;100.00;101610.88;5006957;28;20499;-85
2023/08/17 05:44:47;;;;;;;13.98;4.13;;;;;;;15.65;100.00;101618.50;5003191;28;20518;-85
2023/08/17 05:47:20;;;;;;;8.40;3.75;;;;;;;15.65;100.00;101618.50;5008537;28;20433;-85
2023/08/17 05:49:53;;;;;;;10.20;3.93;;;;;;;15.65;100.00;101618.50;5007124;28;20432;-85
2023/08/17 05:52:26;;;;;;;9.23;3.70;;;;;;;15.69;100.00;101609.69;5011797;28;20433;-85
2023/08/17 05:55:00;;;;;;;8.20;3.65;;;;;;;15.59;100.00;101616.13;5004493;28;20430;-86
2023/08/17 05:57:33;;;;;;;10.35;3.67;;;;;;;15.59;100.00;101616.13;5005139;28;20425;-86
2023/08/17 06:00:12;;;;;;;9.38;3.80;;;;;;;15.54;100.00;101613.44;5003253;28;20426;-85
2023/08/17 06:02:49;;;;;;;9.88;4.18;;;;;;;15.54;100.00;101610.69;4999378;28;20428;-86
2023/08/17 06:05:25;;;;;;;6.78;3.70;;;;;;;15.59;100.00;101616.13;5000783;28;20432;-86
2023/08/17 06:07:53;;;;;;;9.70;4.20;;;;;;;15.62;100.00;101607.31;4998350;28;20755;-85
2023/08/17 06:10:24;;;;;;;9.70;4.47;;;;;;;15.60;100.00;101604.84;5000406;28;21302;-85
2023/08/17 06:12:53;;;;;;;9.30;4.40;;;;;;;15.55;100.00;101599.44;5006343;28;20434;-84
2023/08/17 06:15:27;;;;;;;11.70;4.63;;;;;;;15.61;100.00;101597.44;5000692;28;20447;-84
2023/08/17 06:18:00;;;;;;;8.05;4.20;;;;;;;15.65;100.00;101593.81;5001052;28;20422;-84
2023/08/17 06:20:29;;;;;;;11.70;4.63;;;;;;;15.56;100.00;101598.31;5003348;28;20429;-86
2023/08/17 06:22:57;;;;;;;12.18;4.50;;;;;;;15.61;100.00;101600.19;5006681;28;20420;-85
2023/08/17 06:25:30;;;;;;;11.32;4.47;;;;;;;15.59;100.00;101600.50;5006482;28;20438;-83
2023/08/17 06:28:04;;;;;;;10.70;4.10;;;;;;;15.62;100.00;101607.31;5002229;28;20496;-87
2023/08/17 06:30:38;;;;;;;10.30;4.05;;;;;;;15.62;100.00;101599.09;5019391;28;20440;-85
2023/08/17 06:33:07;;;;;;;9.63;4.30;;;;;;;15.62;100.00;101605.38;4996926;28;20489;-84
2023/08/17 06:35:35;;;;;;;10.35;3.90;;;;;;;15.59;100.00;101600.50;4981151;28;20434;-86
2023/08/17 06:38:09;;;;;;;8.57;4.00;;;;;;;15.55;100.00;101601.34;4992885;28;20440;-85
2023/08/17 06:40:37;;;;;;;7.75;3.80;;;;;;;15.54;100.00;101597.00;5001936;28;20434;-85
2023/08/17 06:43:05;;;;;;;16.98;7.65;;;;;;;15.56;100.00;101601.03;5020981;28;20423;-86
2023/08/17 06:45:34;;;;;;;10.73;4.70;;;;;;;15.58;100.00;101598.84;4988089;28;20817;-85
2023/08/17 06:48:04;;;;;;;8.57;4.18;;;;;;;15.55;100.00;101591.22;4990028;28;20447;-84
2023/08/17 06:50:37;;;;;;;9.05;4.03;;;;;;;15.63;100.00;101598.78;4979210;28;20420;-85
2023/08/17 06:53:06;;;;;;;10.35;4.00;;;;;;;15.57;100.00;101594.47;4984787;28;20840;-85
2023/08/17 06:55:39;;;;;;;9.93;4.35;;;;;;;15.60;100.00;101595.81;5002374;28;20443;-84
2023/08/17 06:58:07;;;;;;;11.18;3.78;;;;;;;15.55;100.00;101587.63;4993499;28;20434;-85
2023/08/17 07:00:41;;;;;;;7.20;2.95;;;;;;;15.53;100.00;101585.19;4983597;28;20443;-87
2023/08/17 07:03:11;;;;;;;6.82;2.97;;;;;;;15.57;100.00;101582.69;4998213;28;20440;-84
2023/08/17 07:05:44;;;;;;;8.13;3.33;;;;;;;15.42;100.00;101581.72;4999887;28;20465;-83
2023/08/17 07:08:13;;;;;;;8.32;4.18;;;;;;;15.43;100.00;101580.63;4996591;28;20424;-84
2023/08/17 07:10:41;;;;;;;10.20;3.20;;;;;;;15.45;100.00;101581.16;4983367;28;20768;-85
2023/08/17 07:13:14;;;;;;;7.32;3.00;;;;;;;15.44;100.00;101585.00;4981241;28;20440;-87
2023/08/17 07:15:47;;;;;;;6.20;3.08;;;;;;;15.42;100.00;101580.91;4977854;28;20431;-83
2023/08/17 07:18:17;;;;;;;6.80;2.80;;;;;;;15.28;100.00;101573.38;4976283;28;20434;-84
2023/08/17 07:20:50;;;;;;;6.40;2.90;;;;;;;15.22;100.00;101576.44;4977591;28;20423;-81
2023/08/17 07:23:23;;;;;;;5.70;2.65;;;;;;;15.13;100.00;101582.59;4966609;28;20425;-82
2023/08/17 07:25:52;;;;;;;8.45;2.60;;;;;;;14.98;100.00;101579.97;4976375;28;20429;-83
2023/08/17 07:28:20;;;;;;;5.00;2.50;;;;;;;14.91;100.00;101583.03;4990640;28;20900;-85
2023/08/17 07:30:53;;;;;;;6.18;2.47;;;;;;;14.82;100.00;101573.81;4976402;28;20433;-84
2023/08/17 07:33:23;;;;;;;5.28;2.20;;;;;;;14.75;100.00;101576.06;4999425;28;20638;-82
2023/08/17 07:35:53;;;;;;;4.45;2.40;;;;;;;14.74;100.00;101575.22;4982511;28;20439;-83
2023/08/17 07:38:21;;;;;;;8.02;3.50;;;;;;;14.66;100.00;101564.06;4997060;28;20429;-83
2023/08/17 07:40:49;;;;;;;6.72;2.60;;;;;;;14.60;100.00;101563.25;4994060;28;20418;-83
2023/08/17 07:43:17;;;;;;;4.68;2.55;;;;;;;14.62;100.00;101564.66;4987950;28;21062;-83
2023/08/17 07:45:54;;;;;;;7.00;2.47;;;;;;;14.60;100.00;101564.06;4980439;28;20943;-82
2023/08/17 07:48:24;;;;;;;5.70;2.42;;;;;;;14.62;100.00;101556.44;4982352;28;20425;-84
2023/08/17 07:50:58;;;;;;;6.68;2.58;;;;;;;14.60;100.00;101550.38;4979524;28;20429;-84
2023/08/17 07:53:31;;;;;;;5.57;2.40;;;;;;;14.62;100.00;101558.31;4981217;28;20432;-82
2023/08/17 07:56:04;;;;;;;5.70;2.30;;;;;;;14.65;100.00;101560.50;4981508;28;20428;-83
2023/08/17 07:58:33;;;;;;;4.65;2.30;;;;;;;14.63;100.00;101558.03;4986035;28;20416;-84
2023/08/17 08:01:06;;;;;;;5.78;2.28;;;;;;;14.60;100.00;101558.59;4981445;28;21472;-82
2023/08/17 08:03:41;;;;;;;7.65;2.60;;;;;;;14.58;100.00;101551.75;4983345;28;20436;-82
2023/08/17 08:06:09;;;;;;;5.25;2.20;;;;;;;14.63;100.00;101555.31;4982458;28;20424;-81
2023/08/17 08:08:42;;;;;;;5.03;2.33;;;;;;;14.61;100.00;101562.13;4980656;28;20420;-84
2023/08/17 08:11:10;;;;;;;3.88;2.28;;;;;;;14.59;100.00;101553.41;4982240;28;21582;-81
2023/08/17 08:13:39;;;;;;;5.55;2.50;;;;;;;14.56;100.00;101551.25;4978409;28;20421;-82
2023/08/17 08:16:07;;;;;;;3.95;2.60;;;;;;;14.54;100.00;101551.53;4981789;28;20433;-84
2023/08/17 08:18:41;;;;;;;5.72;2.80;;;;;;;14.53;100.00;101543.56;4978449;28;20441;-81
2023/08/17 08:21:15;;;;;;;6.10;2.38;;;;;;;14.49;100.00;101546.06;5002119;28;21262;-82
2023/08/17 08:23:48;;;;;;;7.20;2.30;;;;;;;14.53;100.00;101540.81;4980082;28;21502;-82
2023/08/17 08:26:16;;;;;;;4.97;2.38;;;;;;;14.57;100.00;101544.63;4983777;28;20433;-81
2023/08/17 08:28:49;;;;;;;5.68;2.28;;;;;;;14.64;100.00;101547.91;4979164;28;22049;-84
2023/08/17 08:31:17;;;;;;;4.93;2.20;;;;;;;14.70;100.00;101548.69;4978879;28;20437;-82
2023/08/17 08:33:52;;;;;;;4.93;2.40;;;;;;;14.71;100.00;101553.06;4976218;28;20436;-81
2023/08/17 08:36:25;;;;;;;4.20;2.38;;;;;;;14.63;100.00;101554.50;4980867;28;20429;-83
2023/08/17 08:38:53;;;;;;;5.03;2.23;;;;;;;14.57;100.00;101561.06;4981550;28;20424;-79
2023/08/17 08:41:28;;;;;;;4.43;2.08;;;;;;;14.61;100.00;101554.75;4977449;28;20444;-81
2023/08/17 08:44:01;;;;;;;6.07;2.15;;;;;;;14.61;100.00;101567.63;4982376;28;20436;-83
2023/08/17 08:46:32;;;;;;;6.32;2.25;;;;;;;14.51;100.00;101559.47;4981624;28;20432;-82
2023/08/17 08:49:06;;;;;;;4.45;2.20;;;;;;;14.52;100.00;101569.34;4978902;28;20428;-82
2023/08/17 08:51:44;;;;;;;4.00;2.15;;;;;;;14.53;100.00;101568.22;4977871;28;21681;-83
2023/08/17 08:54:21;;;;;;;4.80;2.23;;;;;;;14.37;100.00;101564.78;4977249;28;20456;-81
2023/08/17 08:57:00;;;;;;;4.80;2.38;;;;;;;14.35;100.00;101567.81;4975855;28;20420;-82
2023/08/17 08:59:29;;;;;;;7.32;2.40;;;;;;;14.23;100.00;101553.66;4975330;28;20958;-80
2023/08/17 09:01:58;;;;;;;5.93;2.35;;;;;;;14.14;100.00;101556.16;4976712;28;20443;-83
2023/08/17 09:04:33;;;;;;;5.22;2.60;;;;;;;14.15;100.00;101555.03;4975929;28;21630;-80
2023/08/17 09:07:07;;;;;;;7.75;2.85;;;;;;;14.06;100.00;101559.50;4992142;28;20440;-82
2023/08/17 09:09:41;;;;;;;4.60;2.43;;;;;;;13.98;100.00;101566.38;4977604;28;20444;-81
2023/08/17 09:12:14;;;;;;;9.63;2.72;;;;;;;13.88;100.00;101558.19;4980376;28;20908;-82
2023/08/17 09:14:48;;;;;;;7.72;2.60;;;;;;;13.84;100.00;101555.22;4977050;28;20429;-80
2023/08/17 09:17:24;;;;;;;6.45;2.25;;;;;;;13.82;100.00;101553.84;4980114;28;20434;-81
2023/08/17 09:20:01;;;;;;;4.45;2.10;;;;;;;13.76;100.00;101561.28;4977181;28;20440;-81
2023/08/17 09:22:38;;;;;;;5.60;2.20;;;;;;;13.76;100.00;101553.06;4985598;28;20432;-79
2023/08/17 09:25:12;;;;;;;3.60;2.10;;;;;;;13.81;100.00;101552.22;4975326;28;20427;-82
2023/08/17 09:27:45;;;;;;;4.63;2.00;;;;;;;13.81;100.00;101553.06;4976825;28;20432;-81
2023/08/17 09:30:18;;;;;;;9.95;2.45;;;;;;;13.87;100.00;101551.09;4989497;28;20433;-82
2023/08/17 09:32:51;;;;;;;4.75;2.22;;;;;;;13.87;100.00;101548.38;4980083;28;20441;-83
2023/08/17 09:35:20;;;;;;;4.23;2.27;;;;;;;13.94;100.00;101554.34;4989055;28;21014;-83
2023/08/17 09:37:49;;;;;;;4.68;2.40;;;;;;;13.98;100.00;101549.94;4983540;28;20425;-80
2023/08/17 09:40:22;;;;;;;4.38;2.17;;;;;;;13.93;100.00;101548.06;4981646;28;20431;-82
2023/08/17 09:42:55;;;;;;;5.25;2.25;;;;;;;13.93;100.00;101555.44;4985267;28;21642;-81
2023/08/17 09:45:23;;;;;;;5.88;1.90;;;;;;;13.90;100.00;101559.56;5002515;28;20433;-81
2023/08/17 09:47:59;;;;;;;5.93;2.30;;;;;;;13.93;100.00;101563.66;4987134;28;20431;-81
2023/08/17 09:50:28;;;;;;;5.60;2.50;;;;;;;13.93;100.00;101552.69;4987898;28;20428;-83
2023/08/17 09:53:03;;;;;;;3.43;2.20;;;;;;;13.92;100.00;101543.69;4997901;28;20960;-81
2023/08/17 09:55:32;;;;;;;4.75;2.13;;;;;;;13.92;100.00;101532.75;4985606;28;21246;-82
2023/08/17 09:58:06;;;;;;;5.07;2.47;;;;;;;14.04;100.00;101548.00;4983314;28;20889;-81
2023/08/17 10:00:40;;;;;;;6.10;2.35;;;;;;;14.01;100.00;101548.56;4983041;28;20499;-83
2023/08/17 10:03:15;;;;;;;4.78;2.30;;;;;;;14.06;100.00;101551.28;4989584;28;20429;-81
2023/08/17 10:05:56;;;;;;;5.35;2.40;;;;;;;14.13;100.00;101543.56;4984599;28;20421;-83
2023/08/17 10:08:26;;;;;;;6.50;2.60;;;;;;;14.24;100.00;101533.38;4980554;28;20428;-87
2023/08/17 10:10:56;;;;;;;6.57;2.40;;;;;;;14.20;100.00;101532.31;4977976;28;20437;-83
2023/08/17 10:13:32;;;;;;;4.97;2.30;;;;;;;14.13;100.00;101529.88;4981535;28;20428;-83
2023/08/17 10:16:13;;;;;;;4.53;2.23;;;;;;;14.05;100.00;101522.28;4982852;28;20428;-81
2023/08/17 10:18:49;;;;;;;3.80;2.20;;;;;;;14.07;100.00;101515.41;4983634;28;20436;-80
2023/08/17 10:21:28;;;;;;;4.32;2.20;;;;;;;13.94;100.00;101508.63;4959114;28;20452;-81
2023/08/17 10:23:58;;;;;;;5.22;2.00;;;;;;;13.93;100.00;101511.66;4987927;28;21314;-82
2023/08/17 10:26:32;;;;;;;3.42;2.00;;;;;;;13.88;100.00;101507.03;4985170;28;20784;-81
2023/08/17 10:29:07;;;;;;;4.23;2.20;;;;;;;13.88;100.00;101507.03;4978260;28;20440;-80
2023/08/17 10:31:35;;;;;;;4.20;2.30;;;;;;;14.02;100.00;101506.44;4981850;28;21042;-82
2023/08/17 10:34:09;;;;;;;4.05;2.00;;;;;;;14.07;100.00;101501.75;4995149;28;20436;-82
2023/08/17 10:36:45;;;;;;;4.95;2.20;;;;;;;14.11;100.00;101499.22;4984298;28;20433;-82
2023/08/17 10:39:21;;;;;;;4.50;2.23;;;;;;;14.14;100.00;101503.31;4981821;28;20439;-83
2023/08/17 10:41:56;;;;;;;5.22;2.70;;;;;;;14.31;100.00;101503.75;4988782;28;20422;-84
2023/08/17 10:44:42;;;;;;;3.90;2.30;;;;;;;14.37;100.00;101505.34;4986163;28;20433;-82
2023/08/17 10:47:20;;;;;;;5.78;3.00;;;;;;;14.41;100.00;101508.34;5014184;28;20433;-81
2023/08/17 10:49:51;;;;;;;5.57;2.70;;;;;;;14.49;100.00;101515.16;4984049;28;20434;-82
2023/08/17 10:52:30;;;;;;;6.07;2.90;;;;;;;14.51;100.00;101519.22;4984128;28;20443;-82
2023/08/17 10:55:06;;;;;;;7.90;3.23;;;;;;;14.58;100.00;101519.72;4982241;28;20848;-82
2023/08/17 10:57:41;;;;;;;7.90;3.40;;;;;;;14.66;100.00;101521.03;4990182;28;20424;-83
2023/08/17 11:00:16;;;;;;;7.82;3.40;;;;;;;14.62;100.00;101514.47;4985939;28;21241;-85
2023/08/17 11:02:55;;;;;;;5.93;3.20;;;;;;;14.76;100.00;101510.00;4985485;28;20465;-83
2023/08/17 11:05:39;;;;;;;6.65;3.53;;;;;;;14.85;100.00;101501.97;4972717;28;20435;-83
2023/08/17 11:08:22;;;;;;;6.83;3.13;;;;;;;14.83;100.00;101495.97;4965931;28;20479;-81
2023/08/17 11:10:58;;;;;;;7.00;3.10;;;;;;;14.86;100.00;101500.88;4975345;28;20440;-81
2023/08/17 11:13:33;;;;;;;6.70;3.00;;;;;;;14.95;100.00;101496.38;4983247;28;20436;-83
2023/08/17 11:16:08;;;;;;;6.05;2.90;;;;;;;14.95;100.00;101503.78;4988896;28;20440;-83
2023/08/17 11:18:42;;;;;;;6.95;3.00;;;;;;;14.96;100.00;101505.44;4982760;28;20437;-81
2023/08/17 11:21:11;;;;;;;7.35;3.10;;;;;;;14.94;100.00;101516.69;5014334;28;20432;-84
2023/08/17 11:23:45;;;;;;;6.50;3.30;;;;;;;15.06;100.00;101515.47;4977172;28;21951;-81
2023/08/17 11:26:19;;;;;;;6.67;3.30;;;;;;;15.07;100.00;101514.38;4985054;28;20432;-84
2023/08/17 11:28:53;;;;;;;8.27;3.53;;;;;;;15.08;100.00;101511.34;5013013;28;20436;-82
2023/08/17 11:31:26;;;;;;;7.05;3.60;;;;;;;15.13;100.00;101516.78;4985450;28;20440;-82
2023/08/17 11:34:01;;;;;;;6.68;3.35;;;;;;;15.20;100.00;101516.41;4975503;28;20437;-82
2023/08/17 11:36:30;;;;;;;6.95;3.10;;;;;;;15.33;100.00;101519.56;4979628;28;20958;-82
2023/08/17 11:38:59;;;;;;;8.07;3.92;;;;;;;15.32;100.00;101521.50;5001348;28;20478;-82
2023/08/17 11:41:28;;;;;;;8.05;3.45;;;;;;;15.37;100.00;101518.72;4990064;28;20437;-82
2023/08/17 11:43:58;;;;;;;5.80;3.05;;;;;;;15.46;100.00;101511.47;4978369;28;20479;-85